sensor_id;sensor_type;location;lat;lon;timestamp;P1;durP1;ratioP1;P2;durP2;ratioP2
16466;SDS011;8344;47.560;9.710;2024-01-30T00:00:15;1.10;;;1.10;;
16466;SDS011;8344;47.560;9.710;2024-01-30T00:02:41;1.20;;;1.20;;
16466;SDS011;8344;47.560;9.710;2024-01-30T00:05:08;1.13;;;1.13;;
16466;SDS011;8344;47.560;9.710;2024-01-30T00:07:33;1.20;;;1.20;;
16466;SDS011;8344;47.560;9.710;2024-01-30T00:09:58;1.10;;;1.10;;
16466;SDS011;8344;47.560;9.710;2024-01-30T00:12:24;1.40;;;1.40;;
16466;SDS011;8344;47.560;9.710;2024-01-30T00:14:49;1.30;;;1.30;;
16466;SDS011;8344;47.560;9.710;2024-01-30T00:17:14;1.50;;;1.50;;
16466;SDS011;8344;47.560;9.710;2024-01-30T00:19:39;1.10;;;1.10;;
16466;SDS011;8344;47.560;9.710;2024-01-30T00:22:05;1.17;;;1.17;;
16466;SDS011;8344;47.560;9.710;2024-01-30T00:24:30;1.20;;;1.20;;
16466;SDS011;8344;47.560;9.710;2024-01-30T00:26:55;1.20;;;1.20;;
16466;SDS011;8344;47.560;9.710;2024-01-30T00:29:21;0.93;;;0.93;;
16466;SDS011;8344;47.560;9.710;2024-01-30T00:31:47;1.20;;;1.20;;
16466;SDS011;8344;47.560;9.710;2024-01-30T00:34:13;1.10;;;1.10;;
16466;SDS011;8344;47.560;9.710;2024-01-30T00:36:38;1.13;;;1.13;;
16466;SDS011;8344;47.560;9.710;2024-01-30T00:39:03;1.00;;;1.00;;
16466;SDS011;8344;47.560;9.710;2024-01-30T00:41:33;1.00;;;1.00;;
16466;SDS011;8344;47.560;9.710;2024-01-30T00:43:59;1.20;;;1.20;;
16466;SDS011;8344;47.560;9.710;2024-01-30T00:46:25;1.20;;;1.20;;
16466;SDS011;8344;47.560;9.710;2024-01-30T00:48:50;0.80;;;0.80;;
16466;SDS011;8344;47.560;9.710;2024-01-30T00:51:15;1.20;;;1.20;;
16466;SDS011;8344;47.560;9.710;2024-01-30T00:53:40;1.30;;;1.30;;
16466;SDS011;8344;47.560;9.710;2024-01-30T00:56:06;1.00;;;1.00;;
16466;SDS011;8344;47.560;9.710;2024-01-30T00:58:32;1.00;;;1.00;;
16466;SDS011;8344;47.560;9.710;2024-01-30T01:00:57;1.03;;;1.03;;
16466;SDS011;8344;47.560;9.710;2024-01-30T01:03:22;1.00;;;1.00;;
16466;SDS011;8344;47.560;9.710;2024-01-30T01:05:48;0.80;;;0.80;;
16466;SDS011;8344;47.560;9.710;2024-01-30T01:08:13;1.20;;;1.20;;
16466;SDS011;8344;47.560;9.710;2024-01-30T01:10:40;0.90;;;0.90;;
16466;SDS011;8344;47.560;9.710;2024-01-30T01:13:05;1.00;;;1.00;;
16466;SDS011;8344;47.560;9.710;2024-01-30T01:15:30;0.97;;;0.97;;
16466;SDS011;8344;47.560;9.710;2024-01-30T01:17:56;0.70;;;0.70;;
16466;SDS011;8344;47.560;9.710;2024-01-30T01:20:21;1.17;;;1.17;;
16466;SDS011;8344;47.560;9.710;2024-01-30T01:22:46;1.03;;;1.03;;
16466;SDS011;8344;47.560;9.710;2024-01-30T01:25:12;0.90;;;0.90;;
16466;SDS011;8344;47.560;9.710;2024-01-30T01:27:37;1.20;;;1.20;;
16466;SDS011;8344;47.560;9.710;2024-01-30T01:30:06;1.00;;;1.00;;
16466;SDS011;8344;47.560;9.710;2024-01-30T01:32:34;0.80;;;0.80;;
16466;SDS011;8344;47.560;9.710;2024-01-30T01:34:59;0.97;;;0.97;;
16466;SDS011;8344;47.560;9.710;2024-01-30T01:37:24;1.00;;;1.00;;
16466;SDS011;8344;47.560;9.710;2024-01-30T01:39:51;1.03;;;1.03;;
16466;SDS011;8344;47.560;9.710;2024-01-30T01:42:17;0.77;;;0.77;;
16466;SDS011;8344;47.560;9.710;2024-01-30T01:44:42;0.90;;;0.90;;
16466;SDS011;8344;47.560;9.710;2024-01-30T01:47:07;1.07;;;1.07;;
16466;SDS011;8344;47.560;9.710;2024-01-30T01:49:33;1.07;;;1.07;;
16466;SDS011;8344;47.560;9.710;2024-01-30T01:51:58;1.20;;;1.20;;
16466;SDS011;8344;47.560;9.710;2024-01-30T01:54:24;1.13;;;1.13;;
16466;SDS011;8344;47.560;9.710;2024-01-30T01:56:50;1.20;;;1.20;;
16466;SDS011;8344;47.560;9.710;2024-01-30T01:59:16;1.30;;;1.30;;
16466;SDS011;8344;47.560;9.710;2024-01-30T02:01:42;1.30;;;1.30;;
16466;SDS011;8344;47.560;9.710;2024-01-30T02:04:08;1.13;;;1.13;;
16466;SDS011;8344;47.560;9.710;2024-01-30T02:06:34;1.20;;;1.20;;
16466;SDS011;8344;47.560;9.710;2024-01-30T02:08:59;1.10;;;1.10;;
16466;SDS011;8344;47.560;9.710;2024-01-30T02:11:25;1.20;;;1.20;;
16466;SDS011;8344;47.560;9.710;2024-01-30T02:13:50;1.23;;;1.23;;
16466;SDS011;8344;47.560;9.710;2024-01-30T02:16:16;0.90;;;0.90;;
16466;SDS011;8344;47.560;9.710;2024-01-30T02:18:44;1.30;;;1.30;;
16466;SDS011;8344;47.560;9.710;2024-01-30T02:21:12;0.93;;;0.93;;
16466;SDS011;8344;47.560;9.710;2024-01-30T02:23:38;1.10;;;1.10;;
16466;SDS011;8344;47.560;9.710;2024-01-30T02:26:04;1.10;;;1.10;;
16466;SDS011;8344;47.560;9.710;2024-01-30T02:28:30;1.20;;;1.20;;
16466;SDS011;8344;47.560;9.710;2024-01-30T02:30:55;1.10;;;1.10;;
16466;SDS011;8344;47.560;9.710;2024-01-30T02:33:20;1.30;;;1.30;;
16466;SDS011;8344;47.560;9.710;2024-01-30T02:35:47;0.90;;;0.90;;
16466;SDS011;8344;47.560;9.710;2024-01-30T02:38:12;1.30;;;1.30;;
16466;SDS011;8344;47.560;9.710;2024-01-30T02:40:37;1.10;;;1.10;;
16466;SDS011;8344;47.560;9.710;2024-01-30T02:43:04;1.17;;;1.17;;
16466;SDS011;8344;47.560;9.710;2024-01-30T02:45:29;1.00;;;1.00;;
16466;SDS011;8344;47.560;9.710;2024-01-30T02:47:55;1.10;;;1.10;;
16466;SDS011;8344;47.560;9.710;2024-01-30T02:50:20;1.40;;;1.40;;
16466;SDS011;8344;47.560;9.710;2024-01-30T02:52:45;1.30;;;1.30;;
16466;SDS011;8344;47.560;9.710;2024-01-30T02:55:11;1.20;;;1.20;;
16466;SDS011;8344;47.560;9.710;2024-01-30T02:57:36;1.40;;;1.40;;
16466;SDS011;8344;47.560;9.710;2024-01-30T03:00:02;1.20;;;1.20;;
16466;SDS011;8344;47.560;9.710;2024-01-30T03:02:29;1.00;;;1.00;;
16466;SDS011;8344;47.560;9.710;2024-01-30T03:04:54;1.20;;;1.20;;
16466;SDS011;8344;47.560;9.710;2024-01-30T03:07:19;1.20;;;1.20;;
16466;SDS011;8344;47.560;9.710;2024-01-30T03:09:44;1.03;;;1.03;;
16466;SDS011;8344;47.560;9.710;2024-01-30T03:12:10;1.10;;;1.10;;
16466;SDS011;8344;47.560;9.710;2024-01-30T03:14:35;0.93;;;0.93;;
16466;SDS011;8344;47.560;9.710;2024-01-30T03:17:01;1.10;;;1.10;;
16466;SDS011;8344;47.560;9.710;2024-01-30T03:19:26;1.20;;;1.20;;
16466;SDS011;8344;47.560;9.710;2024-01-30T03:21:52;1.40;;;1.40;;
16466;SDS011;8344;47.560;9.710;2024-01-30T03:24:17;1.17;;;1.17;;
16466;SDS011;8344;47.560;9.710;2024-01-30T03:26:43;1.37;;;1.30;;
16466;SDS011;8344;47.560;9.710;2024-01-30T03:29:08;1.10;;;1.10;;
16466;SDS011;8344;47.560;9.710;2024-01-30T03:31:34;1.40;;;1.40;;
16466;SDS011;8344;47.560;9.710;2024-01-30T03:33:59;1.20;;;1.20;;
16466;SDS011;8344;47.560;9.710;2024-01-30T03:36:24;1.10;;;1.10;;
16466;SDS011;8344;47.560;9.710;2024-01-30T03:38:49;1.07;;;1.07;;
16466;SDS011;8344;47.560;9.710;2024-01-30T03:41:15;1.10;;;1.10;;
16466;SDS011;8344;47.560;9.710;2024-01-30T03:43:40;1.30;;;1.30;;
16466;SDS011;8344;47.560;9.710;2024-01-30T03:46:05;0.90;;;0.90;;
16466;SDS011;8344;47.560;9.710;2024-01-30T03:48:31;1.03;;;1.03;;
16466;SDS011;8344;47.560;9.710;2024-01-30T03:50:56;0.90;;;0.90;;
16466;SDS011;8344;47.560;9.710;2024-01-30T03:53:21;0.93;;;0.93;;
16466;SDS011;8344;47.560;9.710;2024-01-30T03:55:47;1.00;;;1.00;;
16466;SDS011;8344;47.560;9.710;2024-01-30T03:58:12;1.10;;;1.10;;
16466;SDS011;8344;47.560;9.710;2024-01-30T04:00:37;0.80;;;0.80;;
16466;SDS011;8344;47.560;9.710;2024-01-30T04:03:03;0.90;;;0.90;;
16466;SDS011;8344;47.560;9.710;2024-01-30T04:05:28;1.30;;;1.30;;
16466;SDS011;8344;47.560;9.710;2024-01-30T04:07:54;0.80;;;0.80;;
16466;SDS011;8344;47.560;9.710;2024-01-30T04:10:19;0.90;;;0.90;;
16466;SDS011;8344;47.560;9.710;2024-01-30T04:12:44;0.93;;;0.93;;
16466;SDS011;8344;47.560;9.710;2024-01-30T04:15:10;0.80;;;0.80;;
16466;SDS011;8344;47.560;9.710;2024-01-30T04:17:35;0.93;;;0.93;;
16466;SDS011;8344;47.560;9.710;2024-01-30T04:20:00;0.80;;;0.80;;
16466;SDS011;8344;47.560;9.710;2024-01-30T04:22:26;0.97;;;0.97;;
16466;SDS011;8344;47.560;9.710;2024-01-30T04:24:51;1.10;;;1.10;;
16466;SDS011;8344;47.560;9.710;2024-01-30T04:27:16;0.90;;;0.90;;
16466;SDS011;8344;47.560;9.710;2024-01-30T04:29:42;0.90;;;0.90;;
16466;SDS011;8344;47.560;9.710;2024-01-30T04:32:07;0.90;;;0.90;;
16466;SDS011;8344;47.560;9.710;2024-01-30T04:34:32;0.80;;;0.80;;
16466;SDS011;8344;47.560;9.710;2024-01-30T04:36:58;0.90;;;0.90;;
16466;SDS011;8344;47.560;9.710;2024-01-30T04:39:23;0.70;;;0.70;;
16466;SDS011;8344;47.560;9.710;2024-01-30T04:41:48;0.80;;;0.80;;
16466;SDS011;8344;47.560;9.710;2024-01-30T04:44:14;0.90;;;0.90;;
16466;SDS011;8344;47.560;9.710;2024-01-30T04:46:39;1.10;;;1.10;;
16466;SDS011;8344;47.560;9.710;2024-01-30T04:49:05;0.90;;;0.90;;
16466;SDS011;8344;47.560;9.710;2024-01-30T04:51:32;0.53;;;0.53;;
16466;SDS011;8344;47.560;9.710;2024-01-30T04:53:57;0.80;;;0.80;;
16466;SDS011;8344;47.560;9.710;2024-01-30T04:56:23;0.73;;;0.73;;
16466;SDS011;8344;47.560;9.710;2024-01-30T04:58:48;1.00;;;1.00;;
16466;SDS011;8344;47.560;9.710;2024-01-30T05:01:16;0.90;;;0.90;;
16466;SDS011;8344;47.560;9.710;2024-01-30T05:03:42;0.83;;;0.83;;
16466;SDS011;8344;47.560;9.710;2024-01-30T05:06:07;0.70;;;0.70;;
16466;SDS011;8344;47.560;9.710;2024-01-30T05:08:33;0.80;;;0.80;;
16466;SDS011;8344;47.560;9.710;2024-01-30T05:11:01;0.70;;;0.70;;
16466;SDS011;8344;47.560;9.710;2024-01-30T05:13:28;0.70;;;0.70;;
16466;SDS011;8344;47.560;9.710;2024-01-30T05:15:54;0.90;;;0.90;;
16466;SDS011;8344;47.560;9.710;2024-01-30T05:18:19;0.90;;;0.90;;
16466;SDS011;8344;47.560;9.710;2024-01-30T05:20:45;0.80;;;0.80;;
16466;SDS011;8344;47.560;9.710;2024-01-30T05:23:10;0.93;;;0.93;;
16466;SDS011;8344;47.560;9.710;2024-01-30T05:25:35;0.73;;;0.73;;
16466;SDS011;8344;47.560;9.710;2024-01-30T05:28:00;0.80;;;0.80;;
16466;SDS011;8344;47.560;9.710;2024-01-30T05:30:26;0.73;;;0.73;;
16466;SDS011;8344;47.560;9.710;2024-01-30T05:32:51;0.80;;;0.80;;
16466;SDS011;8344;47.560;9.710;2024-01-30T05:35:17;0.83;;;0.83;;
16466;SDS011;8344;47.560;9.710;2024-01-30T05:37:43;1.07;;;1.07;;
16466;SDS011;8344;47.560;9.710;2024-01-30T05:40:08;1.00;;;1.00;;
16466;SDS011;8344;47.560;9.710;2024-01-30T05:42:34;1.00;;;1.00;;
16466;SDS011;8344;47.560;9.710;2024-01-30T05:44:59;1.00;;;1.00;;
16466;SDS011;8344;47.560;9.710;2024-01-30T05:47:24;0.73;;;0.73;;
16466;SDS011;8344;47.560;9.710;2024-01-30T05:49:50;0.80;;;0.80;;
16466;SDS011;8344;47.560;9.710;2024-01-30T05:52:15;1.10;;;1.10;;
16466;SDS011;8344;47.560;9.710;2024-01-30T05:54:41;1.10;;;1.10;;
16466;SDS011;8344;47.560;9.710;2024-01-30T05:57:06;1.10;;;1.10;;
16466;SDS011;8344;47.560;9.710;2024-01-30T05:59:32;0.90;;;0.90;;
16466;SDS011;8344;47.560;9.710;2024-01-30T06:01:57;1.20;;;1.20;;
16466;SDS011;8344;47.560;9.710;2024-01-30T06:04:22;0.90;;;0.90;;
16466;SDS011;8344;47.560;9.710;2024-01-30T06:06:48;1.00;;;1.00;;
16466;SDS011;8344;47.560;9.710;2024-01-30T06:09:13;1.03;;;1.03;;
16466;SDS011;8344;47.560;9.710;2024-01-30T06:11:39;1.20;;;1.20;;
16466;SDS011;8344;47.560;9.710;2024-01-30T06:14:04;0.90;;;0.90;;
16466;SDS011;8344;47.560;9.710;2024-01-30T06:16:29;1.17;;;1.17;;
16466;SDS011;8344;47.560;9.710;2024-01-30T06:18:55;1.07;;;1.07;;
16466;SDS011;8344;47.560;9.710;2024-01-30T06:21:21;0.90;;;0.90;;
16466;SDS011;8344;47.560;9.710;2024-01-30T06:23:46;1.00;;;1.00;;
16466;SDS011;8344;47.560;9.710;2024-01-30T06:26:11;0.83;;;0.83;;
16466;SDS011;8344;47.560;9.710;2024-01-30T06:28:37;1.10;;;1.10;;
16466;SDS011;8344;47.560;9.710;2024-01-30T06:31:02;0.60;;;0.60;;
16466;SDS011;8344;47.560;9.710;2024-01-30T06:33:28;0.80;;;0.80;;
16466;SDS011;8344;47.560;9.710;2024-01-30T06:35:53;1.17;;;1.17;;
16466;SDS011;8344;47.560;9.710;2024-01-30T06:38:18;1.00;;;1.00;;
16466;SDS011;8344;47.560;9.710;2024-01-30T06:40:44;0.87;;;0.87;;
16466;SDS011;8344;47.560;9.710;2024-01-30T06:43:09;0.90;;;0.90;;
16466;SDS011;8344;47.560;9.710;2024-01-30T06:45:34;0.97;;;0.97;;
16466;SDS011;8344;47.560;9.710;2024-01-30T06:48:00;0.80;;;0.80;;
16466;SDS011;8344;47.560;9.710;2024-01-30T06:50:25;0.90;;;0.90;;
16466;SDS011;8344;47.560;9.710;2024-01-30T06:52:51;1.07;;;1.07;;
16466;SDS011;8344;47.560;9.710;2024-01-30T06:55:16;1.00;;;1.00;;
16466;SDS011;8344;47.560;9.710;2024-01-30T06:57:41;1.00;;;1.00;;
16466;SDS011;8344;47.560;9.710;2024-01-30T07:00:07;0.80;;;0.80;;
16466;SDS011;8344;47.560;9.710;2024-01-30T07:02:32;1.00;;;1.00;;
16466;SDS011;8344;47.560;9.710;2024-01-30T07:04:58;1.00;;;1.00;;
16466;SDS011;8344;47.560;9.710;2024-01-30T07:07:23;0.60;;;0.60;;
16466;SDS011;8344;47.560;9.710;2024-01-30T07:09:48;0.90;;;0.90;;
16466;SDS011;8344;47.560;9.710;2024-01-30T07:12:17;0.73;;;0.73;;
16466;SDS011;8344;47.560;9.710;2024-01-30T07:14:42;0.60;;;0.60;;
16466;SDS011;8344;47.560;9.710;2024-01-30T07:17:08;0.80;;;0.80;;
16466;SDS011;8344;47.560;9.710;2024-01-30T07:19:33;0.80;;;0.80;;
16466;SDS011;8344;47.560;9.710;2024-01-30T07:22:00;0.77;;;0.77;;
16466;SDS011;8344;47.560;9.710;2024-01-30T07:24:25;0.70;;;0.70;;
16466;SDS011;8344;47.560;9.710;2024-01-30T07:26:51;1.00;;;1.00;;
16466;SDS011;8344;47.560;9.710;2024-01-30T07:29:16;0.90;;;0.90;;
16466;SDS011;8344;47.560;9.710;2024-01-30T07:31:41;0.97;;;0.97;;
16466;SDS011;8344;47.560;9.710;2024-01-30T07:34:07;0.77;;;0.77;;
16466;SDS011;8344;47.560;9.710;2024-01-30T07:36:32;1.10;;;1.10;;
16466;SDS011;8344;47.560;9.710;2024-01-30T07:38:57;1.00;;;1.00;;
16466;SDS011;8344;47.560;9.710;2024-01-30T07:41:22;0.80;;;0.80;;
16466;SDS011;8344;47.560;9.710;2024-01-30T07:43:50;1.00;;;1.00;;
16466;SDS011;8344;47.560;9.710;2024-01-30T07:46:15;0.90;;;0.90;;
16466;SDS011;8344;47.560;9.710;2024-01-30T07:48:40;1.00;;;1.00;;
16466;SDS011;8344;47.560;9.710;2024-01-30T07:51:05;0.90;;;0.90;;
16466;SDS011;8344;47.560;9.710;2024-01-30T07:53:31;0.70;;;0.70;;
16466;SDS011;8344;47.560;9.710;2024-01-30T07:55:56;0.80;;;0.80;;
16466;SDS011;8344;47.560;9.710;2024-01-30T07:58:21;0.67;;;0.67;;
16466;SDS011;8344;47.560;9.710;2024-01-30T08:00:48;1.00;;;1.00;;
16466;SDS011;8344;47.560;9.710;2024-01-30T08:03:13;0.80;;;0.80;;
16466;SDS011;8344;47.560;9.710;2024-01-30T08:05:41;0.90;;;0.90;;
16466;SDS011;8344;47.560;9.710;2024-01-30T08:08:06;0.90;;;0.90;;
16466;SDS011;8344;47.560;9.710;2024-01-30T08:10:31;1.10;;;1.10;;
16466;SDS011;8344;47.560;9.710;2024-01-30T08:12:57;1.10;;;1.10;;
16466;SDS011;8344;47.560;9.710;2024-01-30T08:15:22;1.07;;;1.07;;
16466;SDS011;8344;47.560;9.710;2024-01-30T08:17:47;1.00;;;1.00;;
16466;SDS011;8344;47.560;9.710;2024-01-30T08:20:13;0.90;;;0.90;;
16466;SDS011;8344;47.560;9.710;2024-01-30T08:22:39;0.90;;;0.90;;
16466;SDS011;8344;47.560;9.710;2024-01-30T08:25:05;0.90;;;0.90;;
16466;SDS011;8344;47.560;9.710;2024-01-30T08:27:31;0.70;;;0.70;;
16466;SDS011;8344;47.560;9.710;2024-01-30T08:29:56;1.10;;;1.10;;
16466;SDS011;8344;47.560;9.710;2024-01-30T08:32:21;0.90;;;0.90;;
16466;SDS011;8344;47.560;9.710;2024-01-30T08:34:47;0.90;;;0.90;;
16466;SDS011;8344;47.560;9.710;2024-01-30T08:37:12;0.77;;;0.77;;
16466;SDS011;8344;47.560;9.710;2024-01-30T08:39:41;0.90;;;0.90;;
16466;SDS011;8344;47.560;9.710;2024-01-30T08:42:06;0.90;;;0.90;;
16466;SDS011;8344;47.560;9.710;2024-01-30T08:44:33;0.60;;;0.60;;
16466;SDS011;8344;47.560;9.710;2024-01-30T08:46:58;0.50;;;0.50;;
16466;SDS011;8344;47.560;9.710;2024-01-30T08:49:23;0.73;;;0.73;;
16466;SDS011;8344;47.560;9.710;2024-01-30T08:51:48;0.90;;;0.90;;
16466;SDS011;8344;47.560;9.710;2024-01-30T08:54:15;0.90;;;0.90;;
16466;SDS011;8344;47.560;9.710;2024-01-30T08:56:40;0.67;;;0.67;;
16466;SDS011;8344;47.560;9.710;2024-01-30T08:59:05;0.80;;;0.80;;
16466;SDS011;8344;47.560;9.710;2024-01-30T09:01:31;0.70;;;0.70;;
16466;SDS011;8344;47.560;9.710;2024-01-30T09:03:56;0.70;;;0.70;;
16466;SDS011;8344;47.560;9.710;2024-01-30T09:06:21;0.70;;;0.70;;
16466;SDS011;8344;47.560;9.710;2024-01-30T09:08:47;0.80;;;0.80;;
16466;SDS011;8344;47.560;9.710;2024-01-30T09:11:12;0.80;;;0.80;;
16466;SDS011;8344;47.560;9.710;2024-01-30T09:13:38;0.63;;;0.63;;
16466;SDS011;8344;47.560;9.710;2024-01-30T09:16:04;0.50;;;0.50;;
16466;SDS011;8344;47.560;9.710;2024-01-30T09:18:30;0.60;;;0.60;;
16466;SDS011;8344;47.560;9.710;2024-01-30T09:20:55;0.50;;;0.50;;
16466;SDS011;8344;47.560;9.710;2024-01-30T09:23:20;0.60;;;0.60;;
16466;SDS011;8344;47.560;9.710;2024-01-30T09:25:46;0.60;;;0.60;;
16466;SDS011;8344;47.560;9.710;2024-01-30T09:28:12;0.60;;;0.60;;
16466;SDS011;8344;47.560;9.710;2024-01-30T09:30:37;0.60;;;0.60;;
16466;SDS011;8344;47.560;9.710;2024-01-30T09:33:02;0.70;;;0.70;;
16466;SDS011;8344;47.560;9.710;2024-01-30T09:35:28;0.60;;;0.60;;
16466;SDS011;8344;47.560;9.710;2024-01-30T09:37:54;0.60;;;0.60;;
16466;SDS011;8344;47.560;9.710;2024-01-30T09:40:20;0.70;;;0.70;;
16466;SDS011;8344;47.560;9.710;2024-01-30T09:42:48;0.73;;;0.73;;
16466;SDS011;8344;47.560;9.710;2024-01-30T09:45:15;0.60;;;0.60;;
16466;SDS011;8344;47.560;9.710;2024-01-30T09:47:41;0.50;;;0.50;;
16466;SDS011;8344;47.560;9.710;2024-01-30T09:50:08;0.67;;;0.67;;
16466;SDS011;8344;47.560;9.710;2024-01-30T09:52:34;0.53;;;0.53;;
16466;SDS011;8344;47.560;9.710;2024-01-30T09:55:00;0.60;;;0.60;;
16466;SDS011;8344;47.560;9.710;2024-01-30T09:57:26;0.60;;;0.60;;
16466;SDS011;8344;47.560;9.710;2024-01-30T09:59:51;0.50;;;0.50;;
16466;SDS011;8344;47.560;9.710;2024-01-30T10:02:19;0.80;;;0.80;;
16466;SDS011;8344;47.560;9.710;2024-01-30T10:04:44;0.60;;;0.60;;
16466;SDS011;8344;47.560;9.710;2024-01-30T10:07:10;0.60;;;0.60;;
16466;SDS011;8344;47.560;9.710;2024-01-30T10:09:36;0.63;;;0.63;;
16466;SDS011;8344;47.560;9.710;2024-01-30T10:12:02;0.73;;;0.73;;
16466;SDS011;8344;47.560;9.710;2024-01-30T10:14:28;0.47;;;0.47;;
16466;SDS011;8344;47.560;9.710;2024-01-30T10:16:54;0.60;;;0.60;;
16466;SDS011;8344;47.560;9.710;2024-01-30T10:19:20;0.60;;;0.60;;
16466;SDS011;8344;47.560;9.710;2024-01-30T10:21:45;0.40;;;0.40;;
16466;SDS011;8344;47.560;9.710;2024-01-30T10:24:11;0.60;;;0.60;;
16466;SDS011;8344;47.560;9.710;2024-01-30T10:26:38;0.50;;;0.50;;
16466;SDS011;8344;47.560;9.710;2024-01-30T10:29:04;0.50;;;0.50;;
16466;SDS011;8344;47.560;9.710;2024-01-30T10:31:29;0.53;;;0.53;;
16466;SDS011;8344;47.560;9.710;2024-01-30T10:33:55;0.57;;;0.57;;
16466;SDS011;8344;47.560;9.710;2024-01-30T10:36:20;0.40;;;0.40;;
16466;SDS011;8344;47.560;9.710;2024-01-30T10:38:49;0.50;;;0.50;;
16466;SDS011;8344;47.560;9.710;2024-01-30T10:41:16;0.50;;;0.50;;
16466;SDS011;8344;47.560;9.710;2024-01-30T10:43:45;0.47;;;0.47;;
16466;SDS011;8344;47.560;9.710;2024-01-30T10:46:20;0.50;;;0.50;;
16466;SDS011;8344;47.560;9.710;2024-01-30T10:48:56;0.40;;;0.40;;
16466;SDS011;8344;47.560;9.710;2024-01-30T10:51:23;0.50;;;0.50;;
16466;SDS011;8344;47.560;9.710;2024-01-30T10:53:49;0.60;;;0.60;;
16466;SDS011;8344;47.560;9.710;2024-01-30T10:56:14;0.70;;;0.70;;
16466;SDS011;8344;47.560;9.710;2024-01-30T10:58:41;0.70;;;0.70;;
16466;SDS011;8344;47.560;9.710;2024-01-30T11:01:07;0.60;;;0.60;;
16466;SDS011;8344;47.560;9.710;2024-01-30T11:03:33;0.60;;;0.60;;
16466;SDS011;8344;47.560;9.710;2024-01-30T11:06:01;0.70;;;0.70;;
16466;SDS011;8344;47.560;9.710;2024-01-30T11:08:27;0.50;;;0.50;;
16466;SDS011;8344;47.560;9.710;2024-01-30T11:10:56;0.60;;;0.60;;
16466;SDS011;8344;47.560;9.710;2024-01-30T11:13:22;0.60;;;0.60;;
16466;SDS011;8344;47.560;9.710;2024-01-30T11:15:51;0.47;;;0.47;;
16466;SDS011;8344;47.560;9.710;2024-01-30T11:18:26;0.47;;;0.47;;
16466;SDS011;8344;47.560;9.710;2024-01-30T11:20:55;0.40;;;0.40;;
16466;SDS011;8344;47.560;9.710;2024-01-30T11:23:22;0.60;;;0.60;;
16466;SDS011;8344;47.560;9.710;2024-01-30T11:25:47;0.60;;;0.60;;
16466;SDS011;8344;47.560;9.710;2024-01-30T11:28:16;0.53;;;0.53;;
16466;SDS011;8344;47.560;9.710;2024-01-30T11:30:41;0.50;;;0.50;;
16466;SDS011;8344;47.560;9.710;2024-01-30T11:33:07;0.80;;;0.80;;
16466;SDS011;8344;47.560;9.710;2024-01-30T11:35:51;0.60;;;0.60;;
16466;SDS011;8344;47.560;9.710;2024-01-30T11:38:17;0.50;;;0.50;;
16466;SDS011;8344;47.560;9.710;2024-01-30T11:40:43;0.70;;;0.70;;
16466;SDS011;8344;47.560;9.710;2024-01-30T11:43:08;0.60;;;0.60;;
16466;SDS011;8344;47.560;9.710;2024-01-30T11:45:34;0.50;;;0.50;;
16466;SDS011;8344;47.560;9.710;2024-01-30T11:48:00;0.60;;;0.60;;
16466;SDS011;8344;47.560;9.710;2024-01-30T11:50:28;0.70;;;0.70;;
16466;SDS011;8344;47.560;9.710;2024-01-30T11:52:54;0.70;;;0.70;;
16466;SDS011;8344;47.560;9.710;2024-01-30T11:55:20;0.50;;;0.50;;
16466;SDS011;8344;47.560;9.710;2024-01-30T11:57:45;0.70;;;0.70;;
16466;SDS011;8344;47.560;9.710;2024-01-30T12:00:13;0.50;;;0.50;;
16466;SDS011;8344;47.560;9.710;2024-01-30T12:02:40;0.50;;;0.50;;
16466;SDS011;8344;47.560;9.710;2024-01-30T12:05:06;0.50;;;0.50;;
16466;SDS011;8344;47.560;9.710;2024-01-30T12:07:31;0.50;;;0.50;;
16466;SDS011;8344;47.560;9.710;2024-01-30T12:09:57;0.50;;;0.50;;
16466;SDS011;8344;47.560;9.710;2024-01-30T12:12:23;0.50;;;0.50;;
16466;SDS011;8344;47.560;9.710;2024-01-30T12:14:50;0.70;;;0.70;;
16466;SDS011;8344;47.560;9.710;2024-01-30T12:17:34;0.40;;;0.40;;
16466;SDS011;8344;47.560;9.710;2024-01-30T12:20:03;0.50;;;0.50;;
16466;SDS011;8344;47.560;9.710;2024-01-30T12:22:38;0.40;;;0.40;;
16466;SDS011;8344;47.560;9.710;2024-01-30T12:25:07;0.50;;;0.50;;
16466;SDS011;8344;47.560;9.710;2024-01-30T12:27:33;0.50;;;0.50;;
16466;SDS011;8344;47.560;9.710;2024-01-30T12:29:58;0.90;;;0.90;;
16466;SDS011;8344;47.560;9.710;2024-01-30T12:32:24;0.53;;;0.53;;
16466;SDS011;8344;47.560;9.710;2024-01-30T12:34:49;0.40;;;0.40;;
16466;SDS011;8344;47.560;9.710;2024-01-30T12:37:14;0.60;;;0.60;;
16466;SDS011;8344;47.560;9.710;2024-01-30T12:39:44;0.67;;;0.67;;
16466;SDS011;8344;47.560;9.710;2024-01-30T12:42:10;0.60;;;0.60;;
16466;SDS011;8344;47.560;9.710;2024-01-30T12:44:35;0.53;;;0.53;;
16466;SDS011;8344;47.560;9.710;2024-01-30T12:47:02;0.40;;;0.40;;
16466;SDS011;8344;47.560;9.710;2024-01-30T12:49:28;0.60;;;0.60;;
16466;SDS011;8344;47.560;9.710;2024-01-30T12:51:53;0.70;;;0.70;;
16466;SDS011;8344;47.560;9.710;2024-01-30T12:54:19;0.50;;;0.50;;
16466;SDS011;8344;47.560;9.710;2024-01-30T12:56:44;0.43;;;0.43;;
16466;SDS011;8344;47.560;9.710;2024-01-30T12:59:09;0.40;;;0.40;;
16466;SDS011;8344;47.560;9.710;2024-01-30T13:01:34;0.40;;;0.40;;
16466;SDS011;8344;47.560;9.710;2024-01-30T13:04:00;0.50;;;0.50;;
16466;SDS011;8344;47.560;9.710;2024-01-30T13:06:25;0.70;;;0.70;;
16466;SDS011;8344;47.560;9.710;2024-01-30T13:08:50;0.30;;;0.30;;
16466;SDS011;8344;47.560;9.710;2024-01-30T13:11:16;0.50;;;0.50;;
16466;SDS011;8344;47.560;9.710;2024-01-30T13:13:41;0.50;;;0.50;;
16466;SDS011;8344;47.560;9.710;2024-01-30T13:16:07;0.40;;;0.40;;
16466;SDS011;8344;47.560;9.710;2024-01-30T13:18:32;0.43;;;0.43;;
16466;SDS011;8344;47.560;9.710;2024-01-30T13:20:58;0.47;;;0.47;;
16466;SDS011;8344;47.560;9.710;2024-01-30T13:23:23;0.40;;;0.40;;
16466;SDS011;8344;47.560;9.710;2024-01-30T13:25:48;0.50;;;0.50;;
16466;SDS011;8344;47.560;9.710;2024-01-30T13:28:14;0.50;;;0.50;;
16466;SDS011;8344;47.560;9.710;2024-01-30T13:30:39;0.40;;;0.40;;
16466;SDS011;8344;47.560;9.710;2024-01-30T13:33:04;0.50;;;0.50;;
16466;SDS011;8344;47.560;9.710;2024-01-30T13:35:29;0.67;;;0.67;;
16466;SDS011;8344;47.560;9.710;2024-01-30T13:37:55;0.60;;;0.60;;
16466;SDS011;8344;47.560;9.710;2024-01-30T13:40:20;0.50;;;0.50;;
16466;SDS011;8344;47.560;9.710;2024-01-30T13:42:47;0.50;;;0.50;;
16466;SDS011;8344;47.560;9.710;2024-01-30T13:45:12;0.40;;;0.40;;
16466;SDS011;8344;47.560;9.710;2024-01-30T13:47:38;0.80;;;0.80;;
16466;SDS011;8344;47.560;9.710;2024-01-30T13:50:04;0.60;;;0.60;;
16466;SDS011;8344;47.560;9.710;2024-01-30T13:52:29;0.60;;;0.60;;
16466;SDS011;8344;47.560;9.710;2024-01-30T13:54:55;0.50;;;0.50;;
16466;SDS011;8344;47.560;9.710;2024-01-30T13:57:20;0.47;;;0.47;;
16466;SDS011;8344;47.560;9.710;2024-01-30T13:59:45;0.40;;;0.40;;
16466;SDS011;8344;47.560;9.710;2024-01-30T14:02:11;0.53;;;0.53;;
16466;SDS011;8344;47.560;9.710;2024-01-30T14:04:36;0.50;;;0.50;;
16466;SDS011;8344;47.560;9.710;2024-01-30T14:07:02;0.50;;;0.50;;
16466;SDS011;8344;47.560;9.710;2024-01-30T14:09:28;0.40;;;0.40;;
16466;SDS011;8344;47.560;9.710;2024-01-30T14:11:53;0.50;;;0.50;;
16466;SDS011;8344;47.560;9.710;2024-01-30T14:14:19;0.60;;;0.60;;
16466;SDS011;8344;47.560;9.710;2024-01-30T14:16:44;0.70;;;0.70;;
16466;SDS011;8344;47.560;9.710;2024-01-30T14:19:09;0.47;;;0.47;;
16466;SDS011;8344;47.560;9.710;2024-01-30T14:21:35;0.60;;;0.60;;
16466;SDS011;8344;47.560;9.710;2024-01-30T14:24:02;0.70;;;0.70;;
16466;SDS011;8344;47.560;9.710;2024-01-30T14:26:27;0.60;;;0.60;;
16466;SDS011;8344;47.560;9.710;2024-01-30T14:28:52;0.60;;;0.60;;
16466;SDS011;8344;47.560;9.710;2024-01-30T14:31:20;0.43;;;0.43;;
16466;SDS011;8344;47.560;9.710;2024-01-30T14:33:46;0.60;;;0.60;;
16466;SDS011;8344;47.560;9.710;2024-01-30T14:36:11;0.87;;;0.87;;
16466;SDS011;8344;47.560;9.710;2024-01-30T14:38:37;0.50;;;0.50;;
16466;SDS011;8344;47.560;9.710;2024-01-30T14:41:02;0.70;;;0.70;;
16466;SDS011;8344;47.560;9.710;2024-01-30T14:43:29;0.53;;;0.53;;
16466;SDS011;8344;47.560;9.710;2024-01-30T14:45:54;0.60;;;0.60;;
16466;SDS011;8344;47.560;9.710;2024-01-30T14:48:20;0.50;;;0.50;;
16466;SDS011;8344;47.560;9.710;2024-01-30T14:50:45;0.40;;;0.40;;